sensor_id;sensor_type;location;lat;lon;timestamp;P1;durP1;ratioP1;P2;durP2;ratioP2
15667;SDS011;7934;48.710;9.024;2023-05-07T00:01:22;5.72;;;3.67;;
15667;SDS011;7934;48.710;9.024;2023-05-07T00:03:49;5.40;;;3.50;;
15667;SDS011;7934;48.710;9.024;2023-05-07T00:06:18;5.95;;;3.53;;
15667;SDS011;7934;48.710;9.024;2023-05-07T00:08:48;5.15;;;3.60;;
15667;SDS011;7934;48.710;9.024;2023-05-07T00:11:15;3.42;;;3.22;;
15667;SDS011;7934;48.710;9.024;2023-05-07T00:13:42;7.15;;;3.40;;
15667;SDS011;7934;48.710;9.024;2023-05-07T00:16:09;5.18;;;3.58;;
15667;SDS011;7934;48.710;9.024;2023-05-07T00:18:37;3.50;;;3.10;;
15667;SDS011;7934;48.710;9.024;2023-05-07T00:21:04;3.55;;;3.20;;
15667;SDS011;7934;48.710;9.024;2023-05-07T00:23:32;3.70;;;3.22;;
15667;SDS011;7934;48.710;9.024;2023-05-07T00:26:00;4.13;;;3.38;;
15667;SDS011;7934;48.710;9.024;2023-05-07T00:28:27;3.53;;;3.22;;
15667;SDS011;7934;48.710;9.024;2023-05-07T00:30:54;4.22;;;3.33;;
15667;SDS011;7934;48.710;9.024;2023-05-07T00:33:22;3.60;;;3.30;;
15667;SDS011;7934;48.710;9.024;2023-05-07T00:35:51;8.07;;;3.60;;
15667;SDS011;7934;48.710;9.024;2023-05-07T00:38:19;4.57;;;3.60;;
15667;SDS011;7934;48.710;9.024;2023-05-07T00:40:47;4.63;;;3.60;;
15667;SDS011;7934;48.710;9.024;2023-05-07T00:43:15;5.13;;;3.40;;
15667;SDS011;7934;48.710;9.024;2023-05-07T00:45:42;3.20;;;3.00;;
15667;SDS011;7934;48.710;9.024;2023-05-07T00:48:10;3.30;;;3.00;;
15667;SDS011;7934;48.710;9.024;2023-05-07T00:50:37;4.63;;;3.30;;
15667;SDS011;7934;48.710;9.024;2023-05-07T00:53:04;3.33;;;3.13;;
15667;SDS011;7934;48.710;9.024;2023-05-07T00:55:32;3.60;;;3.30;;
15667;SDS011;7934;48.710;9.024;2023-05-07T00:58:00;3.50;;;3.30;;
15667;SDS011;7934;48.710;9.024;2023-05-07T01:00:27;3.85;;;3.17;;
15667;SDS011;7934;48.710;9.024;2023-05-07T01:02:55;3.42;;;3.22;;
15667;SDS011;7934;48.710;9.024;2023-05-07T01:05:23;4.05;;;3.67;;
15667;SDS011;7934;48.710;9.024;2023-05-07T01:07:53;3.40;;;3.05;;
15667;SDS011;7934;48.710;9.024;2023-05-07T01:10:21;3.70;;;3.40;;
15667;SDS011;7934;48.710;9.024;2023-05-07T01:12:49;3.67;;;3.30;;
15667;SDS011;7934;48.710;9.024;2023-05-07T01:15:18;3.50;;;3.20;;
15667;SDS011;7934;48.710;9.024;2023-05-07T01:17:45;3.40;;;3.20;;
15667;SDS011;7934;48.710;9.024;2023-05-07T01:20:12;3.47;;;3.17;;
15667;SDS011;7934;48.710;9.024;2023-05-07T01:22:42;3.55;;;3.35;;
15667;SDS011;7934;48.710;9.024;2023-05-07T01:25:09;3.53;;;3.30;;
15667;SDS011;7934;48.710;9.024;2023-05-07T01:27:37;3.30;;;3.10;;
15667;SDS011;7934;48.710;9.024;2023-05-07T01:30:05;3.47;;;3.22;;
15667;SDS011;7934;48.710;9.024;2023-05-07T01:32:42;3.78;;;3.05;;
15667;SDS011;7934;48.710;9.024;2023-05-07T01:35:11;3.47;;;3.20;;
15667;SDS011;7934;48.710;9.024;2023-05-07T01:37:38;3.47;;;3.20;;
15667;SDS011;7934;48.710;9.024;2023-05-07T01:40:08;3.30;;;3.03;;
15667;SDS011;7934;48.710;9.024;2023-05-07T01:42:35;3.53;;;3.25;;
15667;SDS011;7934;48.710;9.024;2023-05-07T01:45:06;3.88;;;3.50;;
15667;SDS011;7934;48.710;9.024;2023-05-07T01:47:35;3.83;;;3.63;;
15667;SDS011;7934;48.710;9.024;2023-05-07T01:50:03;5.53;;;3.67;;
15667;SDS011;7934;48.710;9.024;2023-05-07T01:52:31;3.72;;;3.47;;
15667;SDS011;7934;48.710;9.024;2023-05-07T01:54:58;5.80;;;3.83;;
15667;SDS011;7934;48.710;9.024;2023-05-07T01:57:27;4.00;;;3.50;;
15667;SDS011;7934;48.710;9.024;2023-05-07T01:59:54;4.00;;;3.63;;
15667;SDS011;7934;48.710;9.024;2023-05-07T02:02:21;4.85;;;4.05;;
15667;SDS011;7934;48.710;9.024;2023-05-07T02:04:48;6.90;;;4.30;;
15667;SDS011;7934;48.710;9.024;2023-05-07T02:07:15;4.28;;;3.90;;
15667;SDS011;7934;48.710;9.024;2023-05-07T02:09:43;4.35;;;4.05;;
15667;SDS011;7934;48.710;9.024;2023-05-07T02:12:10;4.45;;;3.70;;
15667;SDS011;7934;48.710;9.024;2023-05-07T02:14:39;4.37;;;3.97;;
15667;SDS011;7934;48.710;9.024;2023-05-07T02:17:07;4.47;;;4.10;;
15667;SDS011;7934;48.710;9.024;2023-05-07T02:19:34;4.30;;;3.85;;
15667;SDS011;7934;48.710;9.024;2023-05-07T02:22:01;3.78;;;3.58;;
15667;SDS011;7934;48.710;9.024;2023-05-07T02:24:28;4.22;;;3.83;;
15667;SDS011;7934;48.710;9.024;2023-05-07T02:26:56;4.50;;;3.67;;
15667;SDS011;7934;48.710;9.024;2023-05-07T02:29:23;4.43;;;3.60;;
15667;SDS011;7934;48.710;9.024;2023-05-07T02:31:52;3.72;;;3.53;;
15667;SDS011;7934;48.710;9.024;2023-05-07T02:34:19;4.60;;;3.92;;
15667;SDS011;7934;48.710;9.024;2023-05-07T02:36:46;6.53;;;4.15;;
15667;SDS011;7934;48.710;9.024;2023-05-07T02:39:14;4.25;;;3.92;;
15667;SDS011;7934;48.710;9.024;2023-05-07T02:41:41;3.95;;;3.47;;
15667;SDS011;7934;48.710;9.024;2023-05-07T02:44:08;3.80;;;3.60;;
15667;SDS011;7934;48.710;9.024;2023-05-07T02:46:35;3.83;;;3.38;;
15667;SDS011;7934;48.710;9.024;2023-05-07T02:49:04;4.27;;;3.40;;
15667;SDS011;7934;48.710;9.024;2023-05-07T02:51:32;3.35;;;3.15;;
15667;SDS011;7934;48.710;9.024;2023-05-07T02:53:59;4.57;;;3.35;;
15667;SDS011;7934;48.710;9.024;2023-05-07T02:56:27;3.55;;;3.35;;
15667;SDS011;7934;48.710;9.024;2023-05-07T02:58:54;3.28;;;3.17;;
15667;SDS011;7934;48.710;9.024;2023-05-07T03:01:21;3.80;;;3.50;;
15667;SDS011;7934;48.710;9.024;2023-05-07T03:03:49;3.67;;;3.38;;
15667;SDS011;7934;48.710;9.024;2023-05-07T03:06:17;3.95;;;3.60;;
15667;SDS011;7934;48.710;9.024;2023-05-07T03:08:44;6.00;;;3.53;;
15667;SDS011;7934;48.710;9.024;2023-05-07T03:11:12;3.60;;;3.35;;
15667;SDS011;7934;48.710;9.024;2023-05-07T03:13:42;3.77;;;3.57;;
15667;SDS011;7934;48.710;9.024;2023-05-07T03:16:09;3.90;;;3.50;;
15667;SDS011;7934;48.710;9.024;2023-05-07T03:18:36;7.30;;;3.75;;
15667;SDS011;7934;48.710;9.024;2023-05-07T03:21:03;3.80;;;3.40;;
15667;SDS011;7934;48.710;9.024;2023-05-07T03:23:32;3.75;;;3.45;;
15667;SDS011;7934;48.710;9.024;2023-05-07T03:25:59;4.78;;;4.00;;
15667;SDS011;7934;48.710;9.024;2023-05-07T03:28:26;4.20;;;3.90;;
15667;SDS011;7934;48.710;9.024;2023-05-07T03:30:54;3.65;;;3.40;;
15667;SDS011;7934;48.710;9.024;2023-05-07T03:33:21;3.90;;;3.70;;
15667;SDS011;7934;48.710;9.024;2023-05-07T03:35:48;4.50;;;4.10;;
15667;SDS011;7934;48.710;9.024;2023-05-07T03:38:16;4.70;;;4.40;;
15667;SDS011;7934;48.710;9.024;2023-05-07T03:40:44;4.72;;;4.32;;
15667;SDS011;7934;48.710;9.024;2023-05-07T03:43:12;4.15;;;3.95;;
15667;SDS011;7934;48.710;9.024;2023-05-07T03:45:39;5.13;;;4.72;;
15667;SDS011;7934;48.710;9.024;2023-05-07T03:48:06;5.20;;;4.55;;
15667;SDS011;7934;48.710;9.024;2023-05-07T03:50:33;6.57;;;4.20;;
15667;SDS011;7934;48.710;9.024;2023-05-07T03:53:01;5.00;;;4.60;;
15667;SDS011;7934;48.710;9.024;2023-05-07T03:55:28;4.57;;;4.22;;
15667;SDS011;7934;48.710;9.024;2023-05-07T03:57:56;5.10;;;4.30;;
15667;SDS011;7934;48.710;9.024;2023-05-07T04:00:23;4.55;;;4.22;;
15667;SDS011;7934;48.710;9.024;2023-05-07T04:02:51;5.13;;;4.57;;
15667;SDS011;7934;48.710;9.024;2023-05-07T04:05:20;5.63;;;5.10;;
15667;SDS011;7934;48.710;9.024;2023-05-07T04:07:47;5.18;;;4.78;;
15667;SDS011;7934;48.710;9.024;2023-05-07T04:10:15;5.05;;;4.65;;
15667;SDS011;7934;48.710;9.024;2023-05-07T04:12:42;5.23;;;4.73;;
15667;SDS011;7934;48.710;9.024;2023-05-07T04:15:11;5.00;;;4.65;;
15667;SDS011;7934;48.710;9.024;2023-05-07T04:17:38;4.70;;;4.38;;
15667;SDS011;7934;48.710;9.024;2023-05-07T04:20:08;5.05;;;4.57;;
15667;SDS011;7934;48.710;9.024;2023-05-07T04:22:35;4.68;;;4.20;;
15667;SDS011;7934;48.710;9.024;2023-05-07T04:25:03;4.10;;;3.70;;
15667;SDS011;7934;48.710;9.024;2023-05-07T04:27:30;4.55;;;4.15;;
15667;SDS011;7934;48.710;9.024;2023-05-07T04:29:58;3.75;;;3.45;;
15667;SDS011;7934;48.710;9.024;2023-05-07T04:32:27;3.45;;;3.25;;
15667;SDS011;7934;48.710;9.024;2023-05-07T04:34:54;3.60;;;3.40;;
15667;SDS011;7934;48.710;9.024;2023-05-07T04:37:21;3.60;;;3.30;;
15667;SDS011;7934;48.710;9.024;2023-05-07T04:39:48;3.53;;;3.25;;
15667;SDS011;7934;48.710;9.024;2023-05-07T04:42:15;3.70;;;3.50;;
15667;SDS011;7934;48.710;9.024;2023-05-07T04:44:43;4.03;;;3.72;;
15667;SDS011;7934;48.710;9.024;2023-05-07T04:47:10;4.22;;;3.50;;
15667;SDS011;7934;48.710;9.024;2023-05-07T04:49:38;3.70;;;3.50;;
15667;SDS011;7934;48.710;9.024;2023-05-07T04:52:08;3.50;;;3.20;;
15667;SDS011;7934;48.710;9.024;2023-05-07T04:54:36;3.85;;;3.55;;
15667;SDS011;7934;48.710;9.024;2023-05-07T04:57:03;3.55;;;3.30;;
15667;SDS011;7934;48.710;9.024;2023-05-07T04:59:31;3.60;;;3.30;;
15667;SDS011;7934;48.710;9.024;2023-05-07T05:01:58;4.43;;;3.10;;
15667;SDS011;7934;48.710;9.024;2023-05-07T05:04:26;3.72;;;3.13;;
15667;SDS011;7934;48.710;9.024;2023-05-07T05:06:54;3.50;;;3.15;;
15667;SDS011;7934;48.710;9.024;2023-05-07T05:09:21;3.10;;;2.90;;
15667;SDS011;7934;48.710;9.024;2023-05-07T05:11:50;4.60;;;3.20;;
15667;SDS011;7934;48.710;9.024;2023-05-07T05:14:17;3.88;;;3.15;;
15667;SDS011;7934;48.710;9.024;2023-05-07T05:16:44;3.22;;;3.00;;
15667;SDS011;7934;48.710;9.024;2023-05-07T05:19:11;3.25;;;3.05;;
15667;SDS011;7934;48.710;9.024;2023-05-07T05:21:38;3.20;;;3.00;;
15667;SDS011;7934;48.710;9.024;2023-05-07T05:24:07;2.90;;;2.40;;
15667;SDS011;7934;48.710;9.024;2023-05-07T05:26:34;2.60;;;2.30;;
15667;SDS011;7934;48.710;9.024;2023-05-07T05:29:02;4.78;;;2.75;;
15667;SDS011;7934;48.710;9.024;2023-05-07T05:31:29;3.47;;;2.80;;
15667;SDS011;7934;48.710;9.024;2023-05-07T05:33:56;2.75;;;2.55;;
15667;SDS011;7934;48.710;9.024;2023-05-07T05:36:23;2.45;;;2.25;;
15667;SDS011;7934;48.710;9.024;2023-05-07T05:38:50;4.25;;;2.50;;
15667;SDS011;7934;48.710;9.024;2023-05-07T05:41:19;2.42;;;2.10;;
15667;SDS011;7934;48.710;9.024;2023-05-07T05:43:46;2.93;;;2.30;;
15667;SDS011;7934;48.710;9.024;2023-05-07T05:46:14;2.50;;;2.10;;
15667;SDS011;7934;48.710;9.024;2023-05-07T05:48:41;3.05;;;2.50;;
15667;SDS011;7934;48.710;9.024;2023-05-07T05:51:08;2.78;;;2.30;;
15667;SDS011;7934;48.710;9.024;2023-05-07T05:53:35;2.22;;;2.03;;
15667;SDS011;7934;48.710;9.024;2023-05-07T05:56:03;2.92;;;2.00;;
15667;SDS011;7934;48.710;9.024;2023-05-07T05:58:31;2.10;;;2.00;;
15667;SDS011;7934;48.710;9.024;2023-05-07T06:00:59;2.55;;;2.30;;
15667;SDS011;7934;48.710;9.024;2023-05-07T06:03:27;3.58;;;2.47;;
15667;SDS011;7934;48.710;9.024;2023-05-07T06:05:56;3.28;;;2.97;;
15667;SDS011;7934;48.710;9.024;2023-05-07T06:08:24;2.83;;;2.33;;
15667;SDS011;7934;48.710;9.024;2023-05-07T06:10:52;3.00;;;2.53;;
15667;SDS011;7934;48.710;9.024;2023-05-07T06:13:19;2.95;;;2.75;;
15667;SDS011;7934;48.710;9.024;2023-05-07T06:15:48;3.10;;;2.67;;
15667;SDS011;7934;48.710;9.024;2023-05-07T06:18:18;2.80;;;2.50;;
15667;SDS011;7934;48.710;9.024;2023-05-07T06:20:45;2.70;;;2.50;;
15667;SDS011;7934;48.710;9.024;2023-05-07T06:23:14;4.65;;;2.50;;
15667;SDS011;7934;48.710;9.024;2023-05-07T06:25:41;2.90;;;2.20;;
15667;SDS011;7934;48.710;9.024;2023-05-07T06:28:08;2.78;;;2.58;;
15667;SDS011;7934;48.710;9.024;2023-05-07T06:30:36;3.72;;;2.38;;
15667;SDS011;7934;48.710;9.024;2023-05-07T06:33:19;3.03;;;2.47;;
15667;SDS011;7934;48.710;9.024;2023-05-07T06:35:46;2.47;;;2.28;;
15667;SDS011;7934;48.710;9.024;2023-05-07T06:38:13;3.00;;;2.72;;
15667;SDS011;7934;48.710;9.024;2023-05-07T06:40:40;2.72;;;2.53;;
15667;SDS011;7934;48.710;9.024;2023-05-07T06:43:07;2.70;;;2.50;;
15667;SDS011;7934;48.710;9.024;2023-05-07T06:45:35;2.65;;;2.47;;
15667;SDS011;7934;48.710;9.024;2023-05-07T06:48:02;2.85;;;2.65;;
15667;SDS011;7934;48.710;9.024;2023-05-07T06:50:33;3.17;;;2.15;;
15667;SDS011;7934;48.710;9.024;2023-05-07T06:53:00;2.10;;;1.80;;
15667;SDS011;7934;48.710;9.024;2023-05-07T06:55:28;2.78;;;2.20;;
15667;SDS011;7934;48.710;9.024;2023-05-07T06:57:55;3.05;;;2.40;;
15667;SDS011;7934;48.710;9.024;2023-05-07T07:00:26;2.05;;;1.95;;
15667;SDS011;7934;48.710;9.024;2023-05-07T07:02:54;2.33;;;2.00;;
15667;SDS011;7934;48.710;9.024;2023-05-07T07:05:26;2.10;;;2.00;;
15667;SDS011;7934;48.710;9.024;2023-05-07T07:07:55;2.07;;;1.97;;
15667;SDS011;7934;48.710;9.024;2023-05-07T07:10:22;1.88;;;1.73;;
15667;SDS011;7934;48.710;9.024;2023-05-07T07:12:49;2.67;;;1.90;;
15667;SDS011;7934;48.710;9.024;2023-05-07T07:15:17;1.95;;;1.90;;
15667;SDS011;7934;48.710;9.024;2023-05-07T07:17:47;2.50;;;2.30;;
15667;SDS011;7934;48.710;9.024;2023-05-07T07:20:14;2.30;;;2.20;;
15667;SDS011;7934;48.710;9.024;2023-05-07T07:22:42;2.10;;;2.00;;
15667;SDS011;7934;48.710;9.024;2023-05-07T07:25:10;2.47;;;2.05;;
15667;SDS011;7934;48.710;9.024;2023-05-07T07:27:37;2.00;;;1.90;;
15667;SDS011;7934;48.710;9.024;2023-05-07T07:30:05;3.20;;;2.10;;
15667;SDS011;7934;48.710;9.024;2023-05-07T07:32:35;3.10;;;2.10;;
15667;SDS011;7934;48.710;9.024;2023-05-07T07:35:03;1.80;;;1.70;;
15667;SDS011;7934;48.710;9.024;2023-05-07T07:37:30;2.08;;;1.98;;
15667;SDS011;7934;48.710;9.024;2023-05-07T07:40:00;2.58;;;2.38;;
15667;SDS011;7934;48.710;9.024;2023-05-07T07:42:29;1.95;;;1.85;;
15667;SDS011;7934;48.710;9.024;2023-05-07T07:44:56;2.40;;;1.90;;
15667;SDS011;7934;48.710;9.024;2023-05-07T07:47:24;2.13;;;1.90;;
15667;SDS011;7934;48.710;9.024;2023-05-07T07:49:51;1.90;;;1.80;;
15667;SDS011;7934;48.710;9.024;2023-05-07T07:52:18;1.92;;;1.83;;
15667;SDS011;7934;48.710;9.024;2023-05-07T07:54:45;2.00;;;1.80;;
15667;SDS011;7934;48.710;9.024;2023-05-07T07:57:13;2.30;;;1.80;;
15667;SDS011;7934;48.710;9.024;2023-05-07T07:59:41;2.95;;;1.88;;
15667;SDS011;7934;48.710;9.024;2023-05-07T08:02:08;2.53;;;1.80;;
15667;SDS011;7934;48.710;9.024;2023-05-07T08:04:35;2.03;;;1.92;;
15667;SDS011;7934;48.710;9.024;2023-05-07T08:07:03;2.83;;;1.90;;
15667;SDS011;7934;48.710;9.024;2023-05-07T08:09:30;1.80;;;1.70;;
15667;SDS011;7934;48.710;9.024;2023-05-07T08:11:58;3.20;;;1.95;;
15667;SDS011;7934;48.710;9.024;2023-05-07T08:14:26;1.85;;;1.75;;
15667;SDS011;7934;48.710;9.024;2023-05-07T08:16:55;2.33;;;1.83;;
15667;SDS011;7934;48.710;9.024;2023-05-07T08:19:22;1.75;;;1.65;;
15667;SDS011;7934;48.710;9.024;2023-05-07T08:22:02;2.10;;;1.90;;
15667;SDS011;7934;48.710;9.024;2023-05-07T08:24:29;2.30;;;2.10;;
15667;SDS011;7934;48.710;9.024;2023-05-07T08:26:56;2.50;;;2.08;;
15667;SDS011;7934;48.710;9.024;2023-05-07T08:29:23;1.67;;;1.67;;
15667;SDS011;7934;48.710;9.024;2023-05-07T08:31:54;3.03;;;2.28;;
15667;SDS011;7934;48.710;9.024;2023-05-07T08:34:22;3.15;;;1.75;;
15667;SDS011;7934;48.710;9.024;2023-05-07T08:36:49;2.15;;;2.05;;
15667;SDS011;7934;48.710;9.024;2023-05-07T08:39:16;2.13;;;1.90;;
15667;SDS011;7934;48.710;9.024;2023-05-07T08:41:44;2.03;;;1.92;;
15667;SDS011;7934;48.710;9.024;2023-05-07T08:44:12;1.70;;;1.60;;
15667;SDS011;7934;48.710;9.024;2023-05-07T08:46:41;1.58;;;1.50;;
15667;SDS011;7934;48.710;9.024;2023-05-07T08:49:09;2.22;;;2.03;;
15667;SDS011;7934;48.710;9.024;2023-05-07T08:51:37;2.17;;;1.50;;
15667;SDS011;7934;48.710;9.024;2023-05-07T08:54:04;1.75;;;1.60;;
15667;SDS011;7934;48.710;9.024;2023-05-07T08:56:32;1.90;;;1.42;;
15667;SDS011;7934;48.710;9.024;2023-05-07T08:58:59;2.20;;;1.70;;
15667;SDS011;7934;48.710;9.024;2023-05-07T09:01:26;2.40;;;1.70;;
15667;SDS011;7934;48.710;9.024;2023-05-07T09:03:54;2.13;;;1.67;;
15667;SDS011;7934;48.710;9.024;2023-05-07T09:06:23;1.90;;;1.65;;
15667;SDS011;7934;48.710;9.024;2023-05-07T09:08:52;1.90;;;1.67;;
15667;SDS011;7934;48.710;9.024;2023-05-07T09:11:19;2.20;;;1.83;;
15667;SDS011;7934;48.710;9.024;2023-05-07T09:13:47;1.60;;;1.50;;
15667;SDS011;7934;48.710;9.024;2023-05-07T09:16:15;2.72;;;1.70;;
15667;SDS011;7934;48.710;9.024;2023-05-07T09:18:43;1.80;;;1.70;;
15667;SDS011;7934;48.710;9.024;2023-05-07T09:21:14;2.05;;;1.88;;
15667;SDS011;7934;48.710;9.024;2023-05-07T09:23:43;2.40;;;1.58;;
15667;SDS011;7934;48.710;9.024;2023-05-07T09:26:12;1.83;;;1.73;;
15667;SDS011;7934;48.710;9.024;2023-05-07T09:28:41;2.05;;;1.70;;
15667;SDS011;7934;48.710;9.024;2023-05-07T09:31:09;2.90;;;1.67;;
15667;SDS011;7934;48.710;9.024;2023-05-07T09:33:36;2.05;;;1.88;;
15667;SDS011;7934;48.710;9.024;2023-05-07T09:36:04;2.03;;;1.52;;
15667;SDS011;7934;48.710;9.024;2023-05-07T09:38:31;3.03;;;1.70;;
15667;SDS011;7934;48.710;9.024;2023-05-07T09:41:03;1.77;;;1.67;;
15667;SDS011;7934;48.710;9.024;2023-05-07T09:43:34;1.90;;;1.80;;
15667;SDS011;7934;48.710;9.024;2023-05-07T09:46:06;2.85;;;2.53;;
15667;SDS011;7934;48.710;9.024;2023-05-07T09:48:35;1.90;;;1.70;;
15667;SDS011;7934;48.710;9.024;2023-05-07T09:51:05;2.58;;;2.20;;
15667;SDS011;7934;48.710;9.024;2023-05-07T09:53:33;2.00;;;1.90;;
15667;SDS011;7934;48.710;9.024;2023-05-07T09:56:03;2.30;;;2.10;;
15667;SDS011;7934;48.710;9.024;2023-05-07T09:58:31;3.20;;;2.90;;
15667;SDS011;7934;48.710;9.024;2023-05-07T10:00:58;3.60;;;2.20;;
15667;SDS011;7934;48.710;9.024;2023-05-07T10:03:26;2.05;;;1.95;;
15667;SDS011;7934;48.710;9.024;2023-05-07T12:03:47;2.03;;;1.38;;
15667;SDS011;7934;48.710;9.024;2023-05-07T12:06:14;4.40;;;1.20;;
15667;SDS011;7934;48.710;9.024;2023-05-07T12:08:42;2.10;;;1.80;;
15667;SDS011;7934;48.710;9.024;2023-05-07T12:11:14;6.28;;;1.98;;
15667;SDS011;7934;48.710;9.024;2023-05-07T12:13:43;0.37;;;0.33;;
15667;SDS011;7934;48.710;9.024;2023-05-07T12:16:11;0.60;;;0.53;;
15667;SDS011;7934;48.710;9.024;2023-05-07T12:18:38;0.30;;;0.30;;
15667;SDS011;7934;48.710;9.024;2023-05-07T12:21:07;0.90;;;0.70;;
15667;SDS011;7934;48.710;9.024;2023-05-07T12:23:36;1.40;;;0.90;;
15667;SDS011;7934;48.710;9.024;2023-05-07T12:26:03;0.45;;;0.45;;
15667;SDS011;7934;48.710;9.024;2023-05-07T12:28:32;0.20;;;0.20;;
15667;SDS011;7934;48.710;9.024;2023-05-07T12:31:03;0.20;;;0.20;;
15667;SDS011;7934;48.710;9.024;2023-05-07T12:33:31;0.28;;;0.28;;
15667;SDS011;7934;48.710;9.024;2023-05-07T12:36:02;0.32;;;0.32;;
15667;SDS011;7934;48.710;9.024;2023-05-07T12:38:35;0.70;;;0.40;;
15667;SDS011;7934;48.710;9.024;2023-05-07T12:41:03;0.67;;;0.67;;
15667;SDS011;7934;48.710;9.024;2023-05-07T12:43:30;0.00;;;0.00;;
15667;SDS011;7934;48.710;9.024;2023-05-07T12:45:59;0.17;;;0.17;;
15667;SDS011;7934;48.710;9.024;2023-05-07T12:48:27;0.20;;;0.20;;
15667;SDS011;7934;48.710;9.024;2023-05-07T12:50:54;0.50;;;0.50;;
15667;SDS011;7934;48.710;9.024;2023-05-07T12:53:22;0.10;;;0.10;;
15667;SDS011;7934;48.710;9.024;2023-05-07T12:55:51;0.50;;;0.50;;
15667;SDS011;7934;48.710;9.024;2023-05-07T12:58:19;0.20;;;0.20;;
15667;SDS011;7934;48.710;9.024;2023-05-07T13:00:47;0.35;;;0.35;;
15667;SDS011;7934;48.710;9.024;2023-05-07T13:03:22;0.80;;;0.45;;
15667;SDS011;7934;48.710;9.024;2023-05-07T13:05:50;0.80;;;0.80;;
15667;SDS011;7934;48.710;9.024;2023-05-07T13:08:23;1.70;;;0.73;;
15667;SDS011;7934;48.710;9.024;2023-05-07T13:10:52;0.20;;;0.20;;
15667;SDS011;7934;48.710;9.024;2023-05-07T13:13:19;0.20;;;0.20;;
15667;SDS011;7934;48.710;9.024;2023-05-07T13:15:47;0.20;;;0.20;;
15667;SDS011;7934;48.710;9.024;2023-05-07T13:18:14;0.22;;;0.22;;
15667;SDS011;7934;48.710;9.024;2023-05-07T13:20:41;0.30;;;0.30;;
15667;SDS011;7934;48.710;9.024;2023-05-07T13:23:09;0.25;;;0.25;;
15667;SDS011;7934;48.710;9.024;2023-05-07T13:25:37;0.30;;;0.30;;
15667;SDS011;7934;48.710;9.024;2023-05-07T13:28:05;0.23;;;0.23;;
15667;SDS011;7934;48.710;9.024;2023-05-07T13:30:32;0.10;;;0.10;;
15667;SDS011;7934;48.710;9.024;2023-05-07T13:33:00;0.35;;;0.35;;
15667;SDS011;7934;48.710;9.024;2023-05-07T13:35:27;0.40;;;0.40;;
15667;SDS011;7934;48.710;9.024;2023-05-07T13:37:54;6.80;;;1.00;;
15667;SDS011;7934;48.710;9.024;2023-05-07T13:40:22;0.57;;;0.57;;
15667;SDS011;7934;48.710;9.024;2023-05-07T13:42:49;4.85;;;1.25;;
15667;SDS011;7934;48.710;9.024;2023-05-07T13:45:17;0.22;;;0.22;;
15667;SDS011;7934;48.710;9.024;2023-05-07T13:47:46;0.25;;;0.25;;
15667;SDS011;7934;48.710;9.024;2023-05-07T13:50:15;0.25;;;0.25;;
15667;SDS011;7934;48.710;9.024;2023-05-07T13:52:43;0.40;;;0.40;;
15667;SDS011;7934;48.710;9.024;2023-05-07T13:55:15;0.20;;;0.20;;
15667;SDS011;7934;48.710;9.024;2023-05-07T13:57:42;0.30;;;0.30;;
15667;SDS011;7934;48.710;9.024;2023-05-07T14:00:10;0.60;;;0.60;;
15667;SDS011;7934;48.710;9.024;2023-05-07T14:02:40;16.30;;;0.90;;
15667;SDS011;7934;48.710;9.024;2023-05-07T14:05:08;0.40;;;0.40;;
15667;SDS011;7934;48.710;9.024;2023-05-07T14:07:35;0.50;;;0.50;;
15667;SDS011;7934;48.710;9.024;2023-05-07T14:10:02;0.70;;;0.70;;
15667;SDS011;7934;48.710;9.024;2023-05-07T14:12:31;0.10;;;0.10;;
15667;SDS011;7934;48.710;9.024;2023-05-07T14:14:58;0.40;;;0.40;;
15667;SDS011;7934;48.710;9.024;2023-05-07T14:17:25;0.77;;;0.77;;
15667;SDS011;7934;48.710;9.024;2023-05-07T14:19:54;0.30;;;0.30;;
15667;SDS011;7934;48.710;9.024;2023-05-07T14:22:21;0.55;;;0.55;;
15667;SDS011;7934;48.710;9.024;2023-05-07T14:24:49;0.40;;;0.40;;
15667;SDS011;7934;48.710;9.024;2023-05-07T14:27:16;0.70;;;0.50;;
15667;SDS011;7934;48.710;9.024;2023-05-07T14:29:43;0.50;;;0.50;;
15667;SDS011;7934;48.710;9.024;2023-05-07T14:32:15;0.10;;;0.10;;
15667;SDS011;7934;48.710;9.024;2023-05-07T14:34:43;0.57;;;0.52;;
15667;SDS011;7934;48.710;9.024;2023-05-07T14:37:12;1.40;;;0.73;;
15667;SDS011;7934;48.710;9.024;2023-05-07T14:39:39;1.65;;;0.95;;
15667;SDS011;7934;48.710;9.024;2023-05-07T14:42:06;0.43;;;0.43;;
15667;SDS011;7934;48.710;9.024;2023-05-07T14:44:34;0.30;;;0.30;;
15667;SDS011;7934;48.710;9.024;2023-05-07T14:47:01;0.20;;;0.20;;
15667;SDS011;7934;48.710;9.024;2023-05-07T14:49:28;0.03;;;0.03;;
15667;SDS011;7934;48.710;9.024;2023-05-07T14:51:58;0.50;;;0.40;;
15667;SDS011;7934;48.710;9.024;2023-05-07T14:54:27;2.10;;;0.38;;
15667;SDS011;7934;48.710;9.024;2023-05-07T14:56:55;0.70;;;0.70;;
15667;SDS011;7934;48.710;9.024;2023-05-07T14:59:24;0.30;;;0.30;;
15667;SDS011;7934;48.710;9.024;2023-05-07T15:01:51;0.50;;;0.20;;
15667;SDS011;7934;48.710;9.024;2023-05-07T15:04:18;0.10;;;0.10;;
15667;SDS011;7934;48.710;9.024;2023-05-07T15:06:45;0.35;;;0.35;;
15667;SDS011;7934;48.710;9.024;2023-05-07T15:09:13;0.30;;;0.30;;
15667;SDS011;7934;48.710;9.024;2023-05-07T15:11:41;0.10;;;0.10;;
15667;SDS011;7934;48.710;9.024;2023-05-07T15:14:08;0.50;;;0.50;;
15667;SDS011;7934;48.710;9.024;2023-05-07T15:16:36;0.17;;;0.17;;
15667;SDS011;7934;48.710;9.024;2023-05-07T15:19:04;2.05;;;0.47;;
15667;SDS011;7934;48.710;9.024;2023-05-07T15:21:31;0.20;;;0.20;;
15667;SDS011;7934;48.710;9.024;2023-05-07T15:24:02;0.05;;;0.05;;
15667;SDS011;7934;48.710;9.024;2023-05-07T15:26:30;0.35;;;0.35;;
15667;SDS011;7934;48.710;9.024;2023-05-07T15:29:02;0.50;;;0.50;;
15667;SDS011;7934;48.710;9.024;2023-05-07T15:31:34;0.30;;;0.30;;
15667;SDS011;7934;48.710;9.024;2023-05-07T15:34:03;0.20;;;0.17;;
15667;SDS011;7934;48.710;9.024;2023-05-07T15:36:31;0.30;;;0.30;;
15667;SDS011;7934;48.710;9.024;2023-05-07T15:38:58;0.10;;;0.10;;
15667;SDS011;7934;48.710;9.024;2023-05-07T15:41:27;2.20;;;0.93;;
15667;SDS011;7934;48.710;9.024;2023-05-07T15:43:55;0.28;;;0.28;;
15667;SDS011;7934;48.710;9.024;2023-05-07T15:46:24;0.30;;;0.30;;
15667;SDS011;7934;48.710;9.024;2023-05-07T15:48:52;0.10;;;0.10;;
15667;SDS011;7934;48.710;9.024;2023-05-07T15:51:20;0.13;;;0.13;;
15667;SDS011;7934;48.710;9.024;2023-05-07T15:53:49;0.40;;;0.40;;
15667;SDS011;7934;48.710;9.024;2023-05-07T15:56:22;0.63;;;0.43;;
15667;SDS011;7934;48.710;9.024;2023-05-07T15:58:50;0.82;;;0.32;;
15667;SDS011;7934;48.710;9.024;2023-05-07T16:01:18;0.15;;;0.15;;
15667;SDS011;7934;48.710;9.024;2023-05-07T16:03:46;0.70;;;0.70;;
15667;SDS011;7934;48.710;9.024;2023-05-07T16:06:14;1.17;;;1.07;;
15667;SDS011;7934;48.710;9.024;2023-05-07T16:08:41;0.10;;;0.10;;
15667;SDS011;7934;48.710;9.024;2023-05-07T16:11:09;0.20;;;0.20;;
15667;SDS011;7934;48.710;9.024;2023-05-07T16:13:36;0.27;;;0.27;;
15667;SDS011;7934;48.710;9.024;2023-05-07T16:16:04;0.07;;;0.07;;
15667;SDS011;7934;48.710;9.024;2023-05-07T16:18:31;0.00;;;0.00;;
15667;SDS011;7934;48.710;9.024;2023-05-07T16:21:01;0.67;;;0.40;;
15667;SDS011;7934;48.710;9.024;2023-05-07T16:23:28;0.10;;;0.10;;
15667;SDS011;7934;48.710;9.024;2023-05-07T16:25:56;0.00;;;0.00;;
15667;SDS011;7934;48.710;9.024;2023-05-07T16:28:23;0.10;;;0.10;;
15667;SDS011;7934;48.710;9.024;2023-05-07T16:30:50;0.20;;;0.20;;
15667;SDS011;7934;48.710;9.024;2023-05-07T16:33:18;0.47;;;0.47;;
15667;SDS011;7934;48.710;9.024;2023-05-07T16:35:49;0.10;;;0.10;;
15667;SDS011;7934;48.710;9.024;2023-05-07T16:38:18;0.67;;;0.67;;
15667;SDS011;7934;48.710;9.024;2023-05-07T16:40:46;0.10;;;0.10;;
15667;SDS011;7934;48.710;9.024;2023-05-07T16:43:13;1.50;;;0.20;;
15667;SDS011;7934;48.710;9.024;2023-05-07T16:45:40;0.10;;;0.10;;
15667;SDS011;7934;48.710;9.024;2023-05-07T16:48:08;0.10;;;0.10;;
15667;SDS011;7934;48.710;9.024;2023-05-07T16:50:35;0.00;;;0.00;;
15667;SDS011;7934;48.710;9.024;2023-05-07T16:53:03;0.10;;;0.10;;
15667;SDS011;7934;48.710;9.024;2023-05-07T16:55:33;1.40;;;0.40;;
15667;SDS011;7934;48.710;9.024;2023-05-07T16:58:03;0.00;;;0.00;;
15667;SDS011;7934;48.710;9.024;2023-05-07T17:00:30;1.30;;;0.70;;
15667;SDS011;7934;48.710;9.024;2023-05-07T17:02:58;0.60;;;0.60;;